모두
Parnu Airport (Parnu) EPU 기상
|
Parnu (EEPU)
일부분 흐림
바람이 붐 |
|
9 °C |
There is no TAF data available at EPU or any nearby airports.
최근 EPU METAR 이력
| Date | Time (EEST) | Flight Rules | Wind Dir. | Speed | Type | Height AGL (ft) | Visibility | Temp (°C) | Temp (°F) | Dew Point (°C) | Dew Point (°F) | Rel. Humid. | Pressure | Density Altitude | Remarks |
|---|---|---|---|---|---|---|---|---|---|---|---|---|---|---|---|
| 03-5월 | 08:50 | VFR | 200° | 11 kt | Scattered Broken |
14,000 19,000 |
10000 meters | 9° | 48° | 6° | 42° | 81% | 1009 mb | -549 ft | |
| 03-5월 | 08:20 | VFR | 200° | 10 kt | Scattered Scattered |
18,000 22,000 |
10000 meters | 9° | 48° | 6° | 42° | 81% | 1008 mb | -519 ft | |
| 03-5월 | 07:50 | VFR | 190° | 10 kt | Few |
23,000 |
10000 meters | 9° | 48° | 6° | 42° | 81% | 1008 mb | -519 ft | |
| 03-5월 | 07:20 | VFR | 190° | 10 kt | 10000 meters | 8° | 46° | 5° | 41° | 81% | 1008 mb | -639 ft | |||
| 03-5월 | 06:50 | VFR | 190° | 10 kt | 10000 meters | 8° | 46° | 5° | 41° | 81% | 1008 mb | -639 ft | |||
| 03-5월 | 06:20 | VFR | 180° | 8 kt | 10000 meters | 7° | 44° | 5° | 41° | 87% | 1008 mb | -759 ft | |||
| 03-5월 | 05:50 | VFR | 180° | 11 kt | 10000 meters | 7° | 44° | 5° | 41° | 87% | 1008 mb | -759 ft | |||
| 03-5월 | 05:20 | VFR | 190° | 7 kt | 10000 meters | 7° | 44° | 5° | 41° | 87% | 1009 mb | -789 ft | |||
| 03-5월 | 04:50 | VFR | 190° | 7 kt | 10000 meters | 7° | 44° | 5° | 41° | 87% | 1009 mb | -789 ft | |||
| 03-5월 | 04:20 | VFR | 190° | 8 kt | 10000 meters | 7° | 44° | 5° | 41° | 87% | 1009 mb | -789 ft | |||
| 03-5월 | 03:50 | VFR | 190° | 8 kt | 10000 meters | 7° | 44° | 5° | 41° | 87% | 1009 mb | -789 ft | |||
| 03-5월 | 03:20 | VFR | 190° | 9 kt | 10000 meters | 7° | 44° | 5° | 41° | 87% | 1009 mb | -789 ft | |||
| 03-5월 | 02:50 | VFR | 200° | 6 kt | 10000 meters | 7° | 44° | 5° | 41° | 87% | 1010 mb | -818 ft | |||
| 03-5월 | 02:20 | VFR | 190° | 8 kt | 10000 meters | 8° | 46° | 5° | 41° | 81% | 1010 mb | -698 ft | |||
| 03-5월 | 01:50 | VFR | 190° | 7 kt | 10000 meters | 8° | 46° | 5° | 41° | 81% | 1010 mb | -698 ft | |||
| 03-5월 | 01:20 | VFR | 200° | 9 kt | 10000 meters | 8° | 46° | 5° | 41° | 81% | 1010 mb | -698 ft | |||
| 03-5월 | 00:50 | VFR | 200° | 7 kt | 10000 meters | 7° | 44° | 5° | 41° | 87% | 1011 mb | -848 ft | |||
| 03-5월 | 00:20 | VFR | 200° | 7 kt | 10000 meters | 8° | 46° | 5° | 41° | 81% | 1011 mb | -728 ft | |||
| 02-5월 | 23:50 | VFR | 190° | 6 kt | 10000 meters | 8° | 46° | 5° | 41° | 81% | 1011 mb | -728 ft | |||
| 02-5월 | 23:20 | VFR | 190° | 6 kt | 10000 meters | 8° | 46° | 5° | 41° | 81% | 1012 mb | -757 ft | |||
| 02-5월 | 22:50 | VFR | 180° | 8 kt | 10000 meters | 9° | 48° | 5° | 41° | 76% | 1012 mb | -637 ft | |||
| 02-5월 | 22:20 | VFR | 170° | 8 kt | 10000 meters | 8° | 46° | 5° | 41° | 81% | 1012 mb | -757 ft | |||
| 02-5월 | 21:50 | VFR | 200° | 10 kt | 10000 meters | 11° | 51° | 4° | 39° | 62% | 1012 mb | -397 ft | |||
| 02-5월 | 21:20 | VFR | 220° | 8 kt | 10000 meters | 11° | 51° | 4° | 39° | 62% | 1012 mb | -397 ft |
로그인
| 귀하의 브라우저는 지원되지 않습니다.. 브라우저를 업그레이드하세요 |
